
A couple of frontal boundaries will move east and south from the Plains to the Gulf and Atlantic coastlines. These boundaries will focus showers and thunderstorms through the weekend, with scattered severe thunderstorms from the Southern Plains and across the Gulf Coast states. Locally heavy rainfall may also occur, which may be welcome news across drought areas. Meanwhile, heat spreads westward. Read More >
| Tornadoes by Month | ||||||||||||
| Jan | Feb | Mar | Apr | May | Jun | Jul | Aug | Sep | Oct | Nov | Dec | Total |
| 0 | 0 | 0 | 10 | 5 | 13 | 1 | 0 | 1 | 1 | 0 | 0 | 31 |
| Tornadoes by Intensity | |||||||
|---|---|---|---|---|---|---|---|
| F? | F0 | F1 | F2 | F3 | F4 | F5 | Total |
| 0 | 12 | 9 | 10 | 0 | 0 | 0 | 31 |
| Tornado Number |
Date | Time (CST) |
Length of Path (miles) |
Width of Path (yards) |
F-Scale | Killed | Injured | County | Location |
|---|---|---|---|---|---|---|---|---|---|
| 1 | 04/04/1969 | 1705 | 0.1 | 100 | F1 | 0 | 0 | Delaware | 9 S Fairland |
| 2 | 04/04/1969 | 1838 | 0.1 | 10 | F1 | 0 | 0 | Pittsburg | S of Arrowhead State Park |
| 3 | 04/16/1969 | 1430 | 14 | 200 | F2 | 0 | 0 | Alfalfa | W and N of Carmen |
| 4 | 04/16/1969 | 1530 | 24 | 10 | F2 | 0 | 1 | Cotton | S of Devol - 2 ENE Temple |
| 5 | 04/16/1969 | 1630 | 2 | 10 | F1 | 0 | 0 | Garfield | 3 NW Enid |
| 6 | 04/16/1969 | 1800 | 8 | 10 | F2 | 0 | 1 | Stephens | 5 S- 6 E Comanche |
| 7 | 04/16/1969 | 1820 | 0.3 | 10 | F0 | 0 | 0 | Ottawa | 7 E Miami |
| 8 | 04/16/1969 | 1915 | 0.1 | 10 | F1 | 0 | 0 | Osage | 10 N Shidler |
| 9 | 04/16/1969 | 2100 | 0.1 | 10 | F0 | 0 | 0 | Carter | Near Woodford - 2 NE Springer |
| 10 | 04/26/1969 | 1700 | 10 | 10 | F1 | 0 | 0 | Grady | Ninnekah - Tabler |
| 11 | 05/02/1969 | 2052 | 0.1 | 10 | F0 | 0 | 0 | Beckham | 10 S Sweetwater |
| 12 | 05/03/1969 | 1400 | 0.1 | 10 | F1 | 0 | 0 | Grady | Near Verden |
| 13 | 05/06/1969 | 1715 | 0.1 | 10 | F0 | 0 | 0 | Jefferson | Near Ringling |
| 14 | 05/13/1969 | 2100 | 0.1 | 10 | F0 | 0 | 0 | Greer | 11 W- 6 NW Mangum |
| 15 | 05/15/1969 | 0001 | 0.1 | 10 | F0 | 0 | 0 | Beckham | NW of Erick |
| 16 | 06/07/1969 | 2210 | 0.1 | 10 | F2 | 0 | 0 | Texas | Near Straight |
| 17 | 06/10/1969 | 1900 | 0.1 | 10 | F0 | 0 | 0 | Beaver | SW part of county near Texas State Line |
| 18 | 06/11/1969 | 1500 | 0.1 | 10 | F0 | 0 | 0 | Garfield | ~4 E Carrier |
| 19 | 06/14/1969 | 0300 | 13 | 100 | F2 | 0 | 0 | Bryan | Near Colbert - 5 E Durant |
| 20 | 06/22/1969 | 2030 | 0.1 | 10 | F2 | 0 | 0 | Lincoln | 5 W Prague |
| 21 | 06/23/1969 | 1700 | 0.1 | 10 | F0 | 0 | 0 | Ellis | Near Gage |
| 22 | 06/23/1969 | 1800 | 0.1 | 10 | F1 | 0 | 0 | Creek | near Drumright |
| 23 | 06/23/1969 | 1810 | 0.1 | 10 | F0 | 0 | 0 | Noble | 4 SW Perry |
| 24 | 06/23/1969 | 1850 | 13 | 10 | F2 | 0 | 0 | Payne | Near Perkins - Near Ripley |
| 25 | 06/23/1969 | 2200 | 1.5 | 10 | F1 | 0 | 0 | Craig | 11 N Vinita |
| 26 | 06/25/1969 | 1700 | 0.8 | 10 | F2 | 0 | 0 | Oklahoma | Near Choctaw |
| 27 | 06/27/1969 | 1800 | 0.1 | 10 | F1 | 0 | 0 | Dewey | 5 SE Seiling |
| 28 | 06/27/1969 | 1957 | 0.1 | 10 | F0 | 0 | 0 | Dewey | 5 SE Taloga |
| 29 | 07/25/1969 | 1730 | 0.8 | 40 | F2 | 0 | 0 | Jackson | Humphreys |
| 30 | 09/15/1969 | 1927 | 0.1 | 10 | F0 | 0 | 0 | Woods | 7 W Alva |
| 31 | 10/10/1969 | 2100 | 0.8 | 200 | F2 | 0 | 0 | Hughes | 2 W Holdenville |